Time;durP1;ratioP1;P1;durP2;ratioP2;P2;SDS_P1;SDS_P2;PMS_P1;PMS_P2;Temp;Humidity;BMP_temperature;BMP_pressure;BME280_temperature;BME280_humidity;BME280_pressure;Samples;Min_cycle;Max_cycle;Signal;HPM_P1;HPM_P2
2023/06/18 00:01:46;;;;;;;13.50;10.10;;;18.60;99.90;;;;;;12422876;28;20060;-35
2023/06/18 00:07:48;;;;;;;13.45;10.00;;;18.40;99.90;;;;;;12391230;28;20169;-35
2023/06/18 00:13:50;;;;;;;12.90;10.40;;;18.30;99.90;;;;;;12395793;28;20041;-36
2023/06/18 00:19:52;;;;;;;14.38;10.38;;;18.30;99.90;;;;;;12406141;28;20149;-36
2023/06/18 00:25:54;;;;;;;10.35;8.63;;;18.50;99.90;;;;;;12417357;28;20042;-35
2023/06/18 00:31:56;;;;;;;16.13;10.32;;;18.70;99.90;;;;;;12389470;28;20042;-35
2023/06/18 00:37:59;;;;;;;15.57;9.65;;;18.60;99.90;;;;;;12423428;28;20057;-35
2023/06/18 00:44:01;;;;;;;13.80;9.67;;;18.40;99.90;;;;;;12421756;28;20140;-35
2023/06/18 00:50:05;;;;;;;15.35;9.50;;;18.40;99.90;;;;;;12413202;28;20414;-35
2023/06/18 00:56:07;;;;;;;12.20;9.07;;;18.20;99.90;;;;;;12395290;28;20101;-35
2023/06/18 01:02:09;;;;;;;11.45;9.20;;;18.10;99.90;;;;;;12390299;28;20046;-35
2023/06/18 01:08:13;;;;;;;11.73;9.20;;;17.90;99.90;;;;;;12414523;28;20054;-35
2023/06/18 01:14:17;;;;;;;11.95;9.70;;;18.00;99.90;;;;;;12404245;28;20418;-35
2023/06/18 01:20:20;;;;;;;9.80;8.40;;;18.00;99.90;;;;;;12407053;28;20136;-35
2023/06/18 01:26:23;;;;;;;11.82;9.30;;;17.90;99.90;;;;;;12394674;28;20423;-35
2023/06/18 01:32:25;;;;;;;12.73;9.45;;;17.80;99.90;;;;;;12405783;28;20050;-35
2023/06/18 01:38:41;;;;;;;15.38;9.30;;;17.80;99.90;;;;;;12410603;28;20099;-35
2023/06/18 01:44:55;;;;;;;14.82;9.88;;;17.60;99.90;;;;;;12402445;28;20494;-35
2023/06/18 01:50:57;;;;;;;13.90;9.52;;;17.40;99.90;;;;;;12399871;28;20053;-35
2023/06/18 01:57:00;;;;;;;11.85;9.73;;;17.40;99.90;;;;;;12417505;28;20042;-35
2023/06/18 02:03:02;;;;;;;13.35;9.85;;;17.40;99.90;;;;;;12399416;28;20046;-35
2023/06/18 02:09:05;;;;;;;15.15;10.10;;;17.20;99.90;;;;;;12407542;28;20054;-35
2023/06/18 02:15:07;;;;;;;10.07;8.40;;;17.20;99.90;;;;;;12419567;28;20129;-35
2023/06/18 02:21:09;;;;;;;14.88;10.30;;;17.10;99.90;;;;;;12407775;28;20050;-35
2023/06/18 02:27:11;;;;;;;12.95;9.80;;;16.90;99.90;;;;;;12381135;28;20057;-35
2023/06/18 02:33:17;;;;;;;15.30;10.57;;;16.80;99.90;;;;;;12412005;28;20062;-34
2023/06/18 02:39:19;;;;;;;16.15;11.20;;;16.70;99.90;;;;;;12402853;28;20054;-35
2023/06/18 02:45:24;;;;;;;13.93;10.88;;;16.70;99.90;;;;;;12425835;28;20128;-35
2023/06/18 02:51:26;;;;;;;11.75;10.10;;;16.70;99.90;;;;;;12431998;28;20042;-35
2023/06/18 02:57:28;;;;;;;15.55;11.75;;;16.70;99.90;;;;;;12428372;28;20133;-35
2023/06/18 03:03:30;;;;;;;15.73;11.15;;;16.70;99.90;;;;;;12418287;28;20041;-35
2023/06/18 03:09:32;;;;;;;18.02;12.40;;;16.60;99.90;;;;;;12424623;28;20046;-35
2023/06/18 03:15:34;;;;;;;18.25;12.15;;;16.60;99.90;;;;;;12413357;28;20084;-35
2023/06/18 03:21:36;;;;;;;15.10;11.73;;;16.60;99.90;;;;;;12410672;28;20046;-35
2023/06/18 03:27:38;;;;;;;19.90;12.02;;;16.60;99.90;;;;;;12399422;28;20070;-35
2023/06/18 03:33:40;;;;;;;16.45;12.15;;;16.60;99.90;;;;;;12422204;28;20038;-35
2023/06/18 03:39:42;;;;;;;14.65;11.75;;;16.60;99.90;;;;;;12405020;28;20057;-35
2023/06/18 03:45:44;;;;;;;17.52;12.27;;;16.60;99.90;;;;;;12396493;28;20051;-35
2023/06/18 03:51:46;;;;;;;16.20;11.60;;;16.50;99.90;;;;;;12413436;28;20376;-35
2023/06/18 03:57:48;;;;;;;14.65;11.73;;;16.60;99.90;;;;;;12396264;28;20050;-35
2023/06/18 04:03:51;;;;;;;16.50;11.90;;;16.80;99.90;;;;;;12407321;28;20049;-35
2023/06/18 04:09:53;;;;;;;16.08;12.38;;;17.00;99.90;;;;;;12416287;28;20045;-35
2023/06/18 04:15:57;;;;;;;16.52;12.48;;;17.00;99.90;;;;;;12420840;28;20050;-35
2023/06/18 04:22:00;;;;;;;12.38;11.07;;;17.50;99.90;;;;;;12400517;28;20050;-35
2023/06/18 04:28:02;;;;;;;15.25;13.20;;;17.80;99.90;;;;;;12408690;28;20062;-35
2023/06/18 04:34:04;;;;;;;15.35;12.65;;;18.10;99.90;;;;;;12411549;28;20050;-35
2023/06/18 04:40:07;;;;;;;18.38;12.30;;;18.80;99.90;;;;;;12422703;28;20050;-34
2023/06/18 04:46:09;;;;;;;14.02;11.07;;;19.30;99.90;;;;;;12379198;28;20134;-35
2023/06/18 04:52:14;;;;;;;16.40;13.25;;;19.60;99.90;;;;;;12414009;28;20054;-35
2023/06/18 04:58:16;;;;;;;15.70;13.20;;;19.10;99.90;;;;;;12411636;28;20046;-35
2023/06/18 05:04:18;;;;;;;16.50;12.45;;;18.50;99.90;;;;;;12401154;28;20510;-36
2023/06/18 05:10:21;;;;;;;20.30;12.93;;;18.40;99.90;;;;;;12427482;28;20141;-35
2023/06/18 05:16:23;;;;;;;18.10;13.73;;;18.30;99.90;;;;;;12409041;28;20047;-35
2023/06/18 05:22:26;;;;;;;13.68;12.05;;;18.30;99.90;;;;;;12404571;28;20046;-35
2023/06/18 05:28:27;;;;;;;17.02;14.15;;;18.20;99.90;;;;;;12410736;28;20372;-38
2023/06/18 05:34:30;;;;;;;15.68;12.38;;;18.10;99.90;;;;;;12434034;28;20045;-37
2023/06/18 05:40:32;;;;;;;15.48;13.40;;;18.10;99.90;;;;;;12436189;28;20070;-37
2023/06/18 05:46:34;;;;;;;13.93;12.18;;;18.10;99.90;;;;;;12415229;28;20525;-37
2023/06/18 05:52:37;;;;;;;14.68;12.77;;;18.10;99.90;;;;;;12402675;28;20072;-37
2023/06/18 05:58:39;;;;;;;16.60;12.93;;;18.20;99.90;;;;;;12423636;28;20041;-37
2023/06/18 06:04:41;;;;;;;16.27;12.38;;;18.40;99.90;;;;;;12394718;28;20038;-37
2023/06/18 06:10:46;;;;;;;15.88;12.27;;;18.50;99.90;;;;;;12418811;28;20057;-37
2023/06/18 06:16:50;;;;;;;16.90;13.70;;;18.60;99.90;;;;;;12400052;28;20050;-38
2023/06/18 06:22:52;;;;;;;11.77;9.95;;;18.50;99.90;;;;;;12414198;28;20088;-38
2023/06/18 06:28:54;;;;;;;13.85;10.32;;;18.70;99.90;;;;;;12432214;28;20057;-37
2023/06/18 06:34:56;;;;;;;15.32;12.38;;;19.10;99.90;;;;;;12428758;28;20049;-38
2023/06/18 06:40:58;;;;;;;14.05;11.50;;;19.50;99.90;;;;;;12417425;28;20053;-37
2023/06/18 06:47:00;;;;;;;12.85;10.55;;;19.80;99.90;;;;;;12425122;28;20069;-38
2023/06/18 06:53:02;;;;;;;13.90;11.65;;;19.90;99.90;;;;;;12428338;28;20065;-39
2023/06/18 06:59:05;;;;;;;18.40;14.00;;;20.10;99.90;;;;;;12402222;28;20384;-37
2023/06/18 07:05:07;;;;;;;16.90;13.10;;;20.20;99.90;;;;;;12400099;28;20518;-38
2023/06/18 07:11:09;;;;;;;15.25;12.45;;;20.20;99.90;;;;;;12406490;28;20809;-38
2023/06/18 07:17:11;;;;;;;11.25;9.52;;;20.50;99.90;;;;;;12429101;28;20069;-38
2023/06/18 07:23:13;;;;;;;16.98;12.48;;;20.60;99.90;;;;;;12427468;28;20043;-37
2023/06/18 07:29:15;;;;;;;14.07;11.32;;;20.60;99.90;;;;;;12392876;28;20301;-38
2023/06/18 07:35:17;;;;;;;14.25;11.07;;;20.60;99.90;;;;;;12415915;28;20096;-38
2023/06/18 07:41:19;;;;;;;16.75;11.57;;;20.70;99.90;;;;;;12396311;28;20057;-39
2023/06/18 07:47:21;;;;;;;12.63;10.20;;;20.80;99.90;;;;;;12415149;28;20049;-38
2023/06/18 07:53:24;;;;;;;13.10;10.43;;;20.80;99.90;;;;;;12402805;28;20073;-38
2023/06/18 07:59:25;;;;;;;11.85;10.50;;;21.00;99.90;;;;;;12400908;28;20763;-38
2023/06/18 08:05:27;;;;;;;13.73;10.95;;;21.20;99.90;;;;;;12413831;28;20772;-39
2023/06/18 08:11:30;;;;;;;12.63;9.75;;;21.40;99.90;;;;;;12403344;28;20054;-39
2023/06/18 08:17:32;;;;;;;11.90;10.10;;;21.60;99.90;;;;;;12418910;28;20057;-38
2023/06/18 08:23:34;;;;;;;14.27;10.15;;;21.60;99.90;;;;;;12392825;28;20141;-41
2023/06/18 08:29:36;;;;;;;13.38;9.35;;;21.80;99.90;;;;;;12389777;28;20050;-38
2023/06/18 08:35:38;;;;;;;11.20;9.20;;;22.00;99.90;;;;;;12415036;28;20046;-38
2023/06/18 08:41:42;;;;;;;12.23;9.18;;;22.10;99.90;;;;;;12419499;28;20090;-38
2023/06/18 08:47:53;;;;;;;11.63;9.20;;;22.20;99.90;;;;;;12392385;28;20069;-38
2023/06/18 08:54:18;;;;;;;14.10;8.90;;;22.90;99.90;;;;;;12417249;28;20050;-38
2023/06/18 09:00:21;;;;;;;12.00;8.90;;;22.90;99.90;;;;;;12409266;28;20037;-37
2023/06/18 09:06:23;;;;;;;11.45;8.13;;;23.00;99.90;;;;;;12393197;28;20050;-39
2023/06/18 09:12:26;;;;;;;11.93;9.00;;;23.30;99.90;;;;;;12403337;28;20057;-39
2023/06/18 09:18:29;;;;;;;15.73;10.13;;;23.40;99.90;;;;;;12432978;28;20038;-38
2023/06/18 09:24:33;;;;;;;8.32;7.50;;;23.80;99.90;;;;;;12380225;28;20061;-38
2023/06/18 09:30:35;;;;;;;9.73;7.65;;;24.20;99.90;;;;;;12407742;28;20502;-38
2023/06/18 09:36:39;;;;;;;10.63;8.43;;;24.50;99.90;;;;;;12416951;28;20042;-39
2023/06/18 09:42:43;;;;;;;9.43;7.75;;;24.70;99.90;;;;;;12417730;28;20050;-38
2023/06/18 09:48:46;;;;;;;11.32;7.25;;;24.50;99.90;;;;;;12407208;28;20069;-39
2023/06/18 09:54:48;;;;;;;7.63;6.35;;;24.60;99.90;;;;;;12416362;28;20053;-38
2023/06/18 10:01:03;;;;;;;8.60;6.63;;;24.90;99.90;;;;;;12404999;28;20514;-38
2023/06/18 10:07:13;;;;;;;7.57;5.93;;;25.50;99.90;;;;;;12414853;28;20054;-39
2023/06/18 10:13:15;;;;;;;7.40;5.72;;;25.70;99.90;;;;;;12403996;28;20064;-39
2023/06/18 10:19:31;;;;;;;8.35;6.38;;;25.80;99.90;;;;;;12408881;28;20061;-39
2023/06/18 10:25:34;;;;;;;7.97;6.07;;;25.70;99.90;;;;;;12392003;28;20403;-39
2023/06/18 10:31:37;;;;;;;8.38;6.15;;;25.90;99.90;;;;;;12404659;28;20046;-39
2023/06/18 10:37:41;;;;;;;7.80;5.35;;;25.80;99.90;;;;;;12411015;28;20046;-39
2023/06/18 10:43:51;;;;;;;8.70;5.63;;;25.70;99.90;;;;;;12401608;28;20052;-39
2023/06/18 10:50:02;;;;;;;8.10;6.15;;;25.70;99.90;;;;;;12410729;28;20054;-39
2023/06/18 10:56:05;;;;;;;9.15;6.05;;;25.70;99.90;;;;;;12418908;28;20069;-38
2023/06/18 11:02:07;;;;;;;7.18;6.03;;;25.70;99.90;;;;;;12402371;28;20081;-40
2023/06/18 11:08:11;;;;;;;8.63;6.40;;;25.80;99.90;;;;;;12400763;28;20046;-38
2023/06/18 11:14:20;;;;;;;8.93;5.53;;;25.70;99.90;;;;;;12416614;28;20042;-39
2023/06/18 11:20:23;;;;;;;8.43;6.25;;;25.60;99.90;;;;;;12413545;28;20757;-40
2023/06/18 11:26:26;;;;;;;;;;;25.60;99.90;;;;;;12393106;28;20049;-39
2023/06/18 11:32:28;;;;;;;7.95;5.60;;;25.80;99.90;;;;;;12418924;28;20007;-39
2023/06/18 11:38:31;;;;;;;10.43;6.22;;;25.90;99.90;;;;;;12418070;28;20099;-38
2023/06/18 11:44:33;;;;;;;;;;;25.70;99.90;;;;;;12419600;28;20073;-39
2023/06/18 11:50:35;;;;;;;7.28;5.80;;;25.70;99.90;;;;;;12408598;28;19932;-39
2023/06/18 11:56:38;;;;;;;11.15;6.00;;;25.80;99.90;;;;;;12407075;28;20495;-39
2023/06/18 12:02:41;;;;;;;7.73;5.70;;;26.00;99.90;;;;;;12397385;28;20050;-40
2023/06/18 12:08:44;;;;;;;;;;;26.40;99.90;;;;;;12407259;28;20104;-39
2023/06/18 12:14:46;;;;;;;6.57;5.78;;;26.70;99.90;;;;;;12417642;28;20374;-39
2023/06/18 12:20:48;;;;;;;6.50;5.22;;;26.80;99.90;;;;;;12412199;28;20157;-39
2023/06/18 12:26:50;;;;;;;;;;;26.60;99.90;;;;;;12383864;28;20054;-39
2023/06/18 12:33:06;;;;;;;8.55;5.00;;;26.70;99.90;;;;;;12407370;28;19930;-39
2023/06/18 12:39:12;;;;;;;8.48;5.63;;;26.80;99.90;;;;;;12411499;28;20133;-38
2023/06/18 12:45:15;;;;;;;7.68;5.60;;;26.90;99.90;;;;;;12398088;28;20104;-39
2023/06/18 12:51:19;;;;;;;6.82;5.45;;;27.00;99.90;;;;;;12412465;28;20137;-39
2023/06/18 12:57:21;;;;;;;9.68;5.88;;;27.20;99.90;;;;;;12398478;28;20100;-40
2023/06/18 13:03:25;;;;;;;6.97;5.20;;;27.30;99.90;;;;;;12388756;28;20042;-39
2023/06/18 13:09:28;;;;;;;6.35;5.30;;;27.30;99.90;;;;;;12396162;28;20064;-39
2023/06/18 13:15:30;;;;;;;7.37;5.67;;;27.20;99.90;;;;;;12413510;28;20050;-39
2023/06/18 13:21:33;;;;;;;6.65;5.47;;;27.10;99.90;;;;;;12430683;28;20340;-39
2023/06/18 13:27:35;;;;;;;7.25;5.72;;;26.80;99.90;;;;;;12399358;28;20092;-39
2023/06/18 13:33:37;;;;;;;6.93;5.50;;;26.90;99.90;;;;;;12421659;28;20045;-40
2023/06/18 13:39:39;;;;;;;6.70;5.43;;;26.90;99.90;;;;;;12398868;28;20038;-39
2023/06/18 13:45:42;;;;;;;8.33;5.57;;;26.60;99.90;;;;;;12402318;28;20497;-39
2023/06/18 13:51:44;;;;;;;7.55;5.22;;;27.10;99.90;;;;;;12438834;28;20132;-41
2023/06/18 13:57:46;;;;;;;6.35;5.20;;;27.60;99.90;;;;;;12397187;28;20042;-39
2023/06/18 14:03:48;;;;;;;6.05;5.22;;;27.70;99.90;;;;;;12392754;28;20057;-39
2023/06/18 14:09:50;;;;;;;7.15;6.10;;;27.60;99.90;;;;;;12412569;28;20103;-38
2023/06/18 14:15:53;;;;;;;7.43;5.35;;;27.40;99.90;;;;;;12417013;28;20097;-38
2023/06/18 14:21:55;;;;;;;7.20;5.57;;;26.90;99.90;;;;;;12400524;28;20065;-39
2023/06/18 14:27:58;;;;;;;7.45;5.70;;;27.40;99.90;;;;;;12403275;28;20050;-38
2023/06/18 14:34:00;;;;;;;;;;;27.50;99.90;;;;;;12402121;28;20691;-39
2023/06/18 14:40:10;;;;;;;6.32;5.45;;;27.90;99.90;;;;;;12402891;28;19922;-40
2023/06/18 14:46:12;;;;;;;7.45;5.30;;;27.90;99.90;;;;;;12412905;28;20453;-38
2023/06/18 14:52:14;;;;;;;8.18;5.22;;;28.10;99.90;;;;;;12425834;28;20050;-39
2023/06/18 14:58:16;;;;;;;9.70;5.50;;;27.80;99.90;;;;;;12426139;28;20070;-39
2023/06/18 15:04:18;;;;;;;8.02;5.93;;;27.40;99.90;;;;;;12405258;28;20054;-38
2023/06/18 15:10:21;;;;;;;7.90;5.47;;;26.90;99.90;;;;;;12428325;28;20414;-38
2023/06/18 15:16:23;;;;;;;7.67;5.73;;;26.40;99.90;;;;;;12431332;28;20427;-39
2023/06/18 15:22:25;;;;;;;;;;;26.30;99.90;;;;;;12412540;28;20050;-38
2023/06/18 15:28:27;;;;;;;8.55;5.63;;;26.30;99.90;;;;;;12409602;28;19932;-39
2023/06/18 15:34:29;;;;;;;8.63;6.00;;;26.30;99.90;;;;;;12409907;28;21060;-38
2023/06/18 15:40:31;;;;;;;6.43;5.20;;;26.30;99.90;;;;;;12426663;28;20042;-41
2023/06/18 15:46:33;;;;;;;7.83;5.60;;;26.30;99.90;;;;;;12402276;28;20081;-39
2023/06/18 15:52:35;;;;;;;7.40;5.88;;;26.10;99.90;;;;;;12412471;28;20056;-39
2023/06/18 15:58:37;;;;;;;8.37;6.00;;;26.00;99.90;;;;;;12418395;28;20634;-39
2023/06/18 16:04:39;;;;;;;7.53;5.70;;;25.80;99.90;;;;;;12400530;28;20125;-38
2023/06/18 16:10:41;;;;;;;6.90;5.63;;;25.70;99.90;;;;;;12416388;28;20049;-38
2023/06/18 16:16:43;;;;;;;7.37;5.50;;;25.60;99.90;;;;;;12417935;28;20517;-38
2023/06/18 16:22:45;;;;;;;7.50;5.90;;;25.90;99.90;;;;;;12411492;28;20794;-38
2023/06/18 16:28:48;;;;;;;6.57;5.83;;;25.90;99.90;;;;;;12413301;28;20062;-38
2023/06/18 16:34:50;;;;;;;9.77;5.60;;;25.80;99.90;;;;;;12413618;28;20137;-38
2023/06/18 16:40:52;;;;;;;9.07;5.93;;;25.70;99.90;;;;;;12420117;28;20088;-38
2023/06/18 16:46:57;;;;;;;6.88;5.70;;;25.60;99.90;;;;;;12402390;28;20046;-39
2023/06/18 16:52:59;;;;;;;9.38;5.72;;;25.60;99.90;;;;;;12441166;28;20069;-39
2023/06/18 16:59:01;;;;;;;9.15;5.43;;;25.50;99.90;;;;;;12403410;28;20042;-39
2023/06/18 17:05:03;;;;;;;6.90;5.30;;;25.40;99.90;;;;;;12402434;28;20038;-39
2023/06/18 17:11:06;;;;;;;6.28;5.18;;;25.30;99.90;;;;;;12418609;28;20060;-38
2023/06/18 17:17:08;;;;;;;7.03;5.47;;;25.30;99.90;;;;;;12420261;28;20050;-39
2023/06/18 17:23:10;;;;;;;6.70;4.50;;;25.10;99.90;;;;;;12404070;28;20054;-38
2023/06/18 17:29:12;;;;;;;5.50;4.90;;;25.20;99.90;;;;;;12402558;28;20046;-38
2023/06/18 17:35:14;;;;;;;7.20;5.03;;;25.10;99.90;;;;;;12414124;28;20108;-38
2023/06/18 17:41:19;;;;;;;7.37;5.67;;;25.00;99.90;;;;;;12406281;28;20046;-39
2023/06/18 17:47:22;;;;;;;7.72;5.20;;;24.90;99.90;;;;;;12406329;28;20050;-38
2023/06/18 17:53:24;;;;;;;6.57;5.60;;;24.80;99.90;;;;;;12410105;28;20143;-38
2023/06/18 17:59:26;;;;;;;6.73;5.53;;;24.80;99.90;;;;;;12419537;28;20410;-38
2023/06/18 18:05:28;;;;;;;8.57;6.05;;;24.70;99.90;;;;;;12394176;28;20057;-39
2023/06/18 18:11:30;;;;;;;6.43;5.43;;;24.60;99.90;;;;;;12408576;28;20069;-38
2023/06/18 18:17:32;;;;;;;13.23;5.97;;;24.60;99.90;;;;;;12401313;28;20046;-40
2023/06/18 18:23:35;;;;;;;7.55;5.72;;;24.40;99.90;;;;;;12404646;28;20420;-39
2023/06/18 18:29:37;;;;;;;7.35;5.47;;;24.30;99.90;;;;;;12403183;28;20050;-38
2023/06/18 18:35:39;;;;;;;7.95;5.82;;;24.30;99.90;;;;;;12401041;28;20045;-39
2023/06/18 18:41:41;;;;;;;6.85;5.60;;;24.20;99.90;;;;;;12417909;28;20061;-38
2023/06/18 18:47:43;;;;;;;8.10;6.05;;;24.10;99.90;;;;;;12393931;28;20061;-38
2023/06/18 18:53:49;;;;;;;9.15;5.63;;;24.00;99.90;;;;;;12402587;28;20132;-39
2023/06/18 18:59:52;;;;;;;7.57;6.00;;;24.10;99.90;;;;;;12394043;28;20046;-40
2023/06/18 19:05:54;;;;;;;6.65;5.40;;;24.00;99.90;;;;;;12407576;28;20135;-39
2023/06/18 19:11:56;;;;;;;7.10;5.68;;;24.00;99.90;;;;;;12404942;28;20045;-39
2023/06/18 19:17:58;;;;;;;8.73;6.07;;;24.00;99.90;;;;;;12425650;28;20065;-39
2023/06/18 19:24:00;;;;;;;8.27;6.03;;;23.90;99.90;;;;;;12383208;28;20042;-39
2023/06/18 19:30:03;;;;;;;7.47;5.70;;;23.80;99.90;;;;;;12414410;28;20061;-41
2023/06/18 19:36:05;;;;;;;6.93;5.40;;;23.80;99.90;;;;;;12373976;28;20043;-39
2023/06/18 19:42:08;;;;;;;7.10;5.10;;;23.70;99.90;;;;;;12375571;28;20101;-39
2023/06/18 19:48:09;;;;;;;8.10;5.65;;;23.60;99.90;;;;;;12350065;28;20045;-39
2023/06/18 19:54:11;;;;;;;6.93;5.43;;;23.60;99.90;;;;;;12375445;28;20403;-39
2023/06/18 20:00:14;;;;;;;7.80;5.25;;;23.50;99.90;;;;;;12379896;28;20108;-39
2023/06/18 20:06:16;;;;;;;9.02;5.38;;;23.50;99.90;;;;;;12355699;28;20051;-39
2023/06/18 20:12:18;;;;;;;9.32;5.75;;;23.40;99.90;;;;;;12380771;28;20047;-39
2023/06/18 20:18:20;;;;;;;7.13;5.67;;;23.40;99.90;;;;;;12380808;28;20049;-39
2023/06/18 20:24:23;;;;;;;8.05;5.55;;;23.30;99.90;;;;;;12350725;28;20615;-38
2023/06/18 20:30:25;;;;;;;9.48;5.38;;;23.30;99.90;;;;;;12357477;28;20078;-39
2023/06/18 20:36:28;;;;;;;6.80;5.40;;;23.30;99.90;;;;;;12352960;28;20473;-39
2023/06/18 20:42:30;;;;;;;6.60;5.28;;;23.20;99.90;;;;;;12370811;28;20058;-38
2023/06/18 20:48:33;;;;;;;7.28;5.45;;;23.20;99.90;;;;;;12346912;28;20431;-38
2023/06/18 20:54:35;;;;;;;7.45;5.55;;;23.20;99.90;;;;;;12358377;28;20051;-39
2023/06/18 21:00:37;;;;;;;8.13;5.10;;;23.20;99.90;;;;;;12363196;28;20408;-39
2023/06/18 21:06:39;;;;;;;6.63;5.40;;;23.10;99.90;;;;;;12370944;28;20093;-39
2023/06/18 21:12:41;;;;;;;10.13;5.63;;;23.10;99.90;;;;;;12370254;28;20050;-38
2023/06/18 21:18:43;;;;;;;9.15;5.15;;;23.10;99.90;;;;;;12368917;28;20045;-39
2023/06/18 21:24:45;;;;;;;7.07;5.30;;;23.00;99.90;;;;;;12405539;28;20395;-39
2023/06/18 21:30:47;;;;;;;9.98;4.70;;;23.00;99.90;;;;;;12410220;28;20054;-38
2023/06/18 21:36:49;;;;;;;7.32;5.35;;;22.90;99.90;;;;;;12418513;28;20042;-39
2023/06/18 21:42:51;;;;;;;5.60;4.40;;;22.90;99.90;;;;;;12394558;28;20054;-39
2023/06/18 21:48:53;;;;;;;7.82;4.72;;;23.00;99.90;;;;;;12397305;28;20085;-38
2023/06/18 21:54:55;;;;;;;6.63;5.10;;;22.90;99.90;;;;;;12415746;28;20052;-39
2023/06/18 22:00:57;;;;;;;6.65;4.80;;;22.90;99.90;;;;;;12401987;28;20050;-39
2023/06/18 22:06:59;;;;;;;8.93;4.85;;;22.90;99.90;;;;;;12414760;28;20042;-39
2023/06/18 22:13:01;;;;;;;6.40;4.43;;;22.90;99.90;;;;;;12417779;28;20046;-39
2023/06/18 22:19:10;;;;;;;7.25;5.10;;;23.00;99.90;;;;;;12408320;28;20046;-39
2023/06/18 22:25:12;;;;;;;8.73;4.85;;;22.90;99.90;;;;;;12392127;28;20038;-39
2023/06/18 22:31:14;;;;;;;9.88;4.50;;;22.80;99.90;;;;;;12409346;28;20414;-39
2023/06/18 22:37:16;;;;;;;5.85;4.55;;;22.80;99.90;;;;;;12412619;28;20107;-39
2023/06/18 22:43:19;;;;;;;6.28;4.20;;;22.70;99.90;;;;;;12406864;28;20058;-39
2023/06/18 22:49:21;;;;;;;9.60;4.40;;;22.70;99.90;;;;;;12407776;28;20046;-38
2023/06/18 22:55:23;;;;;;;5.90;4.18;;;22.60;99.90;;;;;;12419145;28;20045;-39
2023/06/18 23:01:26;;;;;;;5.57;4.20;;;22.60;99.90;;;;;;12397568;28;20118;-41
2023/06/18 23:07:28;;;;;;;5.35;4.07;;;22.50;99.90;;;;;;12398852;28;20250;-38
2023/06/18 23:13:30;;;;;;;5.50;4.28;;;22.50;99.90;;;;;;12411197;28;20057;-39
2023/06/18 23:19:32;;;;;;;6.70;4.43;;;22.50;99.90;;;;;;12414923;28;20045;-37
2023/06/18 23:25:34;;;;;;;5.50;4.40;;;22.40;99.90;;;;;;12399943;28;20054;-39
2023/06/18 23:31:37;;;;;;;9.75;4.70;;;22.30;99.90;;;;;;12398139;28;20055;-39
2023/06/18 23:37:39;;;;;;;6.93;4.60;;;22.20;99.90;;;;;;12387345;28;20053;-38
2023/06/18 23:43:40;;;;;;;9.05;4.32;;;22.10;99.90;;;;;;12422304;28;20401;-39
2023/06/18 23:49:42;;;;;;;5.82;4.32;;;22.30;99.90;;;;;;12400342;28;20057;-39
2023/06/18 23:55:44;;;;;;;6.22;4.30;;;22.30;99.90;;;;;;12415778;28;20038;-39
